createdAt,value
2018-07-12T16:43:35.736Z,30.3
2018-07-12T16:44:25.803Z,30.3
2018-07-12T16:45:15.402Z,30.3
2018-07-12T16:46:05.929Z,30.3
2018-07-12T16:46:55.710Z,30.3
2018-07-12T16:47:46.111Z,30.2
2018-07-12T16:49:20.254Z,30.1
2018-07-12T16:50:10.509Z,30.1
2018-07-12T16:51:00.008Z,30.1
2018-07-12T16:51:50.105Z,30
2018-07-12T16:52:40.408Z,30
2018-07-12T16:53:30.771Z,29.9
2018-07-12T16:54:20.600Z,29.9
2018-07-12T16:55:10.636Z,29.9
2018-07-12T16:56:00.160Z,29.9
2018-07-12T16:56:50.495Z,29.8
2018-07-12T16:57:41.081Z,29.8
2018-07-12T16:58:30.880Z,29.8
2018-07-12T16:59:20.720Z,29.8
2018-07-12T17:00:10.733Z,29.8
2018-07-12T17:01:00.535Z,29.8
2018-07-12T17:01:50.864Z,29.7
2018-07-12T17:02:41.499Z,29.7
2018-07-12T17:03:31.541Z,29.6
2018-07-12T17:04:21.343Z,29.6
2018-07-12T17:05:11.662Z,29.6
2018-07-12T17:06:01.480Z,29.6
2018-07-12T17:06:51.850Z,29.5
2018-07-12T17:07:41.931Z,29.5
2018-07-12T17:08:31.995Z,29.5
2018-07-12T17:09:21.708Z,29.4
2018-07-12T17:10:11.776Z,29.4
2018-07-12T17:11:02.147Z,29.4
2018-07-12T17:11:51.955Z,29.4
2018-07-12T17:12:41.981Z,29.3
2018-07-12T17:13:32.027Z,29.3
2018-07-12T17:14:22.367Z,29.3
2018-07-12T17:15:11.883Z,29.3
2018-07-12T17:16:02.240Z,29.3
2018-07-12T17:16:52.281Z,29.3
2018-07-12T17:17:42.600Z,29.2
2018-07-12T17:18:32.405Z,29.2
2018-07-12T17:19:22.465Z,29.1
2018-07-12T17:20:12.567Z,29.1
2018-07-12T17:21:02.612Z,29.1
2018-07-12T17:21:52.664Z,29.1
2018-07-12T17:22:42.738Z,29.1
2018-07-12T17:23:32.882Z,29.1
2018-07-12T17:24:23.141Z,29
2018-07-12T17:25:12.656Z,29
2018-07-12T17:26:03.345Z,29
2018-07-12T17:26:53.056Z,29
2018-07-12T17:27:43.395Z,28.9
2018-07-12T17:28:33.453Z,28.9
2018-07-12T17:29:23.561Z,28.9
2018-07-12T17:30:13.318Z,28.9
2018-07-12T17:31:03.840Z,28.9
2018-07-12T17:31:53.707Z,28.9
2018-07-12T17:32:43.784Z,28.8
2018-07-12T17:33:33.845Z,28.8
2018-07-12T17:34:23.629Z,28.8
2018-07-12T17:35:13.964Z,28.8
2018-07-12T17:36:03.778Z,28.8
2018-07-12T17:36:54.099Z,28.7
2018-07-12T17:37:43.613Z,28.7
2018-07-12T17:38:34.246Z,28.7
2018-07-12T17:39:23.763Z,28.7
2018-07-12T17:40:14.385Z,28.6
2018-07-12T17:41:04.920Z,28.6
2018-07-12T17:41:54.497Z,28.6
2018-07-12T17:42:44.278Z,28.6
2018-07-12T17:43:34.629Z,28.6
2018-07-12T17:44:24.673Z,28.5
2018-07-12T17:45:14.452Z,28.6
2018-07-12T17:46:04.547Z,28.5
2018-07-12T17:46:54.901Z,28.5
2018-07-12T17:47:45.667Z,28.5
2018-07-12T17:48:35.016Z,28.5
2018-07-12T17:49:25.077Z,28.5
2018-07-12T17:50:14.564Z,28.4
2018-07-12T17:51:04.878Z,28.5
2018-07-12T17:51:55.303Z,28.5
2018-07-12T17:52:45.047Z,28.4
2018-07-12T17:53:35.361Z,28.4
2018-07-12T17:54:25.463Z,28.4
2018-07-12T17:55:15.498Z,28.4
2018-07-12T17:56:05.752Z,28.4
2018-07-12T17:56:55.649Z,28.4
2018-07-12T17:57:45.149Z,28.4
2018-07-12T17:58:35.773Z,28.4
2018-07-12T17:59:25.826Z,28.4
2018-07-12T18:00:15.902Z,28.4
2018-07-12T18:01:05.690Z,28.3
2018-07-12T18:01:56.035Z,28.3
2018-07-12T18:02:46.089Z,28.3
2018-07-12T18:03:36.171Z,28.3
2018-07-12T18:04:26.230Z,28.3
2018-07-12T18:05:17.203Z,28.3
2018-07-12T18:06:06.390Z,28.3
2018-07-12T18:06:56.398Z,28.2
2018-07-12T18:07:45.901Z,28.2
2018-07-12T18:08:36.268Z,28.2
2018-07-12T18:09:26.399Z,28.2
2018-07-12T18:10:16.725Z,28.2
2018-07-12T18:11:06.463Z,28.2
2018-07-12T18:11:56.529Z,28.1
2018-07-12T18:12:46.580Z,28.1
2018-07-12T18:13:36.711Z,28.1
2018-07-12T18:14:27.971Z,28.1
2018-07-12T18:15:17.067Z,28.1
2018-07-12T18:16:07.120Z,28.1
2018-07-12T18:16:57.207Z,28.1
2018-07-12T18:17:46.990Z,28.1
2018-07-12T18:18:37.290Z,28
2018-07-12T18:19:27.392Z,28
2018-07-12T18:20:17.430Z,28
2018-07-12T18:21:07.261Z,28
2018-07-12T18:21:59.144Z,28
2018-07-12T18:22:47.359Z,27.9
2018-07-12T18:23:37.687Z,27.9
2018-07-12T18:24:27.495Z,27.9
2018-07-12T18:25:17.540Z,27.9
2018-07-12T18:26:07.409Z,27.9
2018-07-12T18:26:57.709Z,27.9
2018-07-12T18:27:47.729Z,27.9
2018-07-12T18:28:37.779Z,27.9
2018-07-12T18:30:18.205Z,27.9
2018-07-12T18:31:08.252Z,27.9
2018-07-12T18:36:08.412Z,27.8
2018-07-12T18:36:58.721Z,27.8
2018-07-12T18:37:48.511Z,27.8
2018-07-12T18:38:38.855Z,27.8
2018-07-12T18:39:28.891Z,27.8
2018-07-12T18:40:18.697Z,27.7
2018-07-12T18:41:09.051Z,27.7
2018-07-12T18:41:59.082Z,27.7
2018-07-12T18:42:49.153Z,27.7
2018-07-12T18:43:40.033Z,27.6
2018-07-12T18:44:29.273Z,27.6
2018-07-12T18:45:19.150Z,27.6
2018-07-12T18:46:09.148Z,27.6
2018-07-12T18:46:59.480Z,27.6
2018-07-12T18:47:49.533Z,27.5
2018-07-12T18:48:39.622Z,27.5
2018-07-12T18:49:29.656Z,27.5
2018-07-12T18:50:19.500Z,27.5
2018-07-12T18:51:09.789Z,27.5
2018-07-12T18:51:59.860Z,27.4
2018-07-12T18:52:49.650Z,27.4
2018-07-12T18:53:39.987Z,27.5
2018-07-12T18:54:30.050Z,27.4
2018-07-12T18:55:19.905Z,27.4
2018-07-12T18:56:09.953Z,27.4
2018-07-12T18:57:00.331Z,27.4
2018-07-12T18:57:50.305Z,27.4
2018-07-12T18:58:40.157Z,27.4
2018-07-12T18:59:30.443Z,27.4
2018-07-12T19:00:20.509Z,27.4
2018-07-12T19:01:10.575Z,27.4
2018-07-12T19:02:00.662Z,27.4
2018-07-12T19:02:50.715Z,27.4
2018-07-12T19:03:40.742Z,27.4
2018-07-12T19:04:30.544Z,27.4
2018-07-12T19:05:20.977Z,27.4
2018-07-12T19:06:10.938Z,27.3
2018-07-12T19:07:01.053Z,27.3
2018-07-12T19:07:51.071Z,27.3
2018-07-12T19:08:41.562Z,27.3
2018-07-12T19:09:30.963Z,27.3
2018-07-12T19:10:21.309Z,27.3
2018-07-12T19:11:11.339Z,27.3
2018-07-12T19:12:01.463Z,27.3
2018-07-12T19:12:50.624Z,27.3
2018-07-12T19:13:41.523Z,27.3
2018-07-12T19:14:31.578Z,27.3
2018-07-12T19:15:22.407Z,27.3
2018-07-12T19:16:11.704Z,27.3
2018-07-12T19:17:01.789Z,27.2
2018-07-12T19:17:51.830Z,27.3
2018-07-12T19:18:41.919Z,27.2
2018-07-12T19:19:32.003Z,27.2
2018-07-12T19:20:22.084Z,27.2
2018-07-12T19:21:11.904Z,27.2
2018-07-12T19:22:02.179Z,27.2
2018-07-12T19:22:52.241Z,27.2
2018-07-12T19:23:42.313Z,27.2
2018-07-12T19:24:32.396Z,27.1
2018-07-12T19:25:22.424Z,27.2
2018-07-12T19:26:12.226Z,27.1
2018-07-12T19:27:02.599Z,27.2
2018-07-12T19:27:52.068Z,27.1
2018-07-12T19:28:42.135Z,27.1
2018-07-12T19:29:32.784Z,27.1
2018-07-12T19:30:22.543Z,27.1
2018-07-12T19:31:11.918Z,27.1
2018-07-12T19:32:02.472Z,27.1
2018-07-12T19:32:52.750Z,27.1
2018-07-12T19:33:43.729Z,27.1
2018-07-12T19:34:32.956Z,27.1
2018-07-12T19:35:23.241Z,27.1
2018-07-12T19:36:12.728Z,27.1
2018-07-12T19:37:03.051Z,27.1
2018-07-12T19:37:53.402Z,27.1
2018-07-12T19:38:43.485Z,27.1
2018-07-12T19:39:32.701Z,27.1
2018-07-12T19:40:23.580Z,27.1
2018-07-12T19:41:13.637Z,27.1
2018-07-12T19:42:03.723Z,27.1
2018-07-12T19:42:53.555Z,27.1
2018-07-12T19:43:43.654Z,27.1
2018-07-12T19:44:33.930Z,27.1
2018-07-12T19:45:23.970Z,27.1
2018-07-12T19:46:13.471Z,27.1
2018-07-12T19:47:04.126Z,27
2018-07-12T19:47:54.163Z,27.1
2018-07-12T19:48:44.204Z,27.1
2018-07-12T19:49:34.281Z,27
2018-07-12T19:50:24.334Z,27
2018-07-12T19:51:14.439Z,27
2018-07-12T19:52:04.209Z,27
2018-07-12T19:52:54.551Z,27.1
2018-07-12T19:53:44.582Z,27
2018-07-12T19:54:34.415Z,27
2018-07-12T19:55:24.861Z,27
2018-07-12T19:56:14.794Z,27
2018-07-12T19:57:04.108Z,27
2018-07-12T19:57:54.186Z,27
2018-07-12T19:58:44.548Z,27
2018-07-12T19:59:35.069Z,27
2018-07-12T20:00:24.576Z,27
2018-07-12T20:01:14.919Z,27
2018-07-12T20:02:05.242Z,27
2018-07-12T20:02:55.305Z,27
2018-07-12T20:03:45.788Z,27
2018-07-12T20:04:35.468Z,27
2018-07-12T20:05:25.250Z,27
2018-07-12T20:06:15.083Z,27
2018-07-12T20:07:05.631Z,27
2018-07-12T20:07:55.442Z,27
2018-07-12T20:08:45.748Z,26.9
2018-07-12T20:09:35.569Z,26.9
2018-07-12T20:10:25.356Z,26.9
2018-07-12T20:11:15.943Z,26.9
2018-07-12T20:12:05.732Z,26.9
2018-07-12T20:12:56.144Z,26.9
2018-07-12T20:13:46.136Z,26.9
2018-07-12T20:14:35.923Z,26.9
2018-07-12T20:15:25.993Z,26.9
2018-07-12T20:16:15.301Z,26.9
2018-07-12T20:17:05.651Z,26.9
2018-07-12T20:17:55.210Z,26.9
2018-07-12T20:18:46.044Z,26.9
2018-07-12T20:19:36.304Z,26.9
2018-07-12T20:20:26.395Z,26.9
2018-07-12T20:21:16.474Z,26.9
2018-07-12T20:22:06.523Z,26.9
2018-07-12T20:22:56.838Z,26.9
2018-07-12T20:23:46.940Z,26.8
2018-07-12T20:24:36.689Z,26.9
2018-07-12T20:25:27.808Z,26.8
2018-07-12T20:26:17.660Z,26.8
2018-07-12T20:27:07.163Z,26.8
2018-07-12T20:27:56.947Z,26.8
2018-07-12T20:28:47.269Z,26.8
2018-07-12T20:29:37.080Z,26.8
2018-07-12T20:30:27.420Z,26.8
2018-07-12T20:31:18.109Z,26.8
2018-07-12T20:32:07.288Z,26.8
2018-07-12T20:32:57.644Z,26.8
2018-07-12T20:33:47.737Z,26.8
2018-07-12T20:34:37.224Z,26.8
2018-07-12T20:35:26.986Z,26.8
2018-07-12T20:36:17.608Z,26.8
2018-07-12T20:37:07.941Z,26.8
2018-07-12T20:37:57.761Z,26.7
2018-07-12T20:38:47.549Z,26.7
2018-07-12T20:39:38.124Z,26.7
2018-07-12T20:40:28.193Z,26.7
2018-07-12T20:41:17.706Z,26.7
2018-07-12T20:42:08.339Z,26.7
2018-07-12T20:42:58.403Z,26.7
2018-07-12T20:43:48.454Z,26.6
2018-07-12T20:44:38.564Z,26.6
2018-07-12T20:45:28.606Z,26.6
2018-07-12T20:46:18.387Z,26.7
2018-07-12T20:47:08.696Z,26.6
2018-07-12T20:47:58.651Z,26.6
2018-07-12T20:48:48.396Z,26.6
2018-07-12T20:49:38.411Z,26.6
2018-07-12T20:50:28.695Z,26.6
2018-07-12T20:51:19.043Z,26.6
2018-07-12T20:52:08.825Z,26.6
2018-07-12T20:52:58.610Z,26.6
2018-07-12T20:53:49.220Z,26.6
2018-07-12T20:54:39.729Z,26.6
2018-07-12T20:55:29.050Z,26.6
2018-07-12T20:56:19.398Z,26.6
2018-07-12T20:57:09.455Z,26.6
2018-07-12T20:57:58.681Z,26.6
2018-07-12T20:58:49.603Z,26.6
2018-07-12T20:59:39.097Z,26.6
2018-07-12T21:00:29.189Z,26.6
2018-07-12T21:01:19.836Z,26.5
2018-07-12T21:02:09.918Z,26.6
2018-07-12T21:02:59.370Z,26.6
2018-07-12T21:03:49.745Z,26.5
2018-07-12T21:04:40.098Z,26.5
2018-07-12T21:05:29.548Z,26.5
2018-07-12T21:06:20.170Z,26.6
2018-07-12T21:07:09.987Z,26.5
2018-07-12T21:08:00.303Z,26.5
2018-07-12T21:08:50.395Z,26.5
2018-07-12T21:09:40.135Z,26.5
2018-07-12T21:10:30.508Z,26.5
2018-07-12T21:11:20.588Z,26.5
2018-07-12T21:12:10.613Z,26.5
2018-07-12T21:13:00.392Z,26.5
2018-07-12T21:13:50.734Z,26.5
2018-07-12T21:14:40.815Z,26.5
2018-07-12T21:15:30.832Z,26.5
2018-07-12T21:16:20.184Z,26.5
2018-07-12T21:17:10.259Z,26.5
2018-07-12T21:18:00.534Z,26.5
2018-07-12T21:18:50.838Z,26.5
2018-07-12T21:19:41.225Z,26.4
2018-07-12T21:20:31.261Z,26.5
2018-07-12T21:21:21.329Z,26.4
2018-07-12T21:22:11.112Z,26.4
2018-07-12T21:23:01.173Z,26.4
2018-07-12T21:23:51.326Z,26.5
2018-07-12T21:24:41.644Z,26.4
2018-07-12T21:25:31.347Z,26.4
2018-07-12T21:26:21.462Z,26.4
2018-07-12T21:27:11.227Z,26.4
2018-07-12T21:28:00.997Z,26.4
2018-07-12T21:28:51.348Z,26.4
2018-07-12T21:29:41.985Z,26.4
2018-07-12T21:30:32.148Z,26.4
2018-07-12T21:31:21.558Z,26.4
2018-07-12T21:32:11.919Z,26.4
2018-07-12T21:33:02.230Z,26.4
2018-07-12T21:33:52.295Z,26.4
2018-07-12T21:34:41.802Z,26.4
2018-07-12T21:35:32.147Z,26.4
2018-07-12T21:36:21.660Z,26.4
2018-07-12T21:37:12.082Z,26.4
2018-07-12T21:38:01.579Z,26.4
2018-07-12T21:38:51.932Z,26.4
2018-07-12T21:39:42.729Z,26.4
2018-07-12T21:40:32.801Z,26.4
2018-07-12T21:41:22.921Z,26.4
2018-07-12T21:42:12.672Z,26.3
2018-07-12T21:43:02.713Z,26.3
2018-07-12T21:43:53.037Z,26.3
2018-07-12T21:44:43.118Z,26.3
2018-07-12T21:45:33.159Z,26.3
2018-07-12T21:46:23.329Z,26.3
2018-07-12T21:47:13.098Z,26.3
2018-07-12T21:48:03.392Z,26.3
2018-07-12T21:48:53.431Z,26.3
2018-07-12T21:49:42.717Z,26.3
2018-07-12T21:50:33.080Z,26.3
2018-07-12T21:51:22.884Z,26.3
2018-07-12T21:52:13.209Z,26.3
2018-07-12T21:53:03.745Z,26.3
2018-07-12T21:53:53.824Z,26.3
2018-07-12T21:54:43.595Z,26.3
2018-07-12T21:55:33.943Z,26.3
2018-07-12T21:56:24.019Z,26.3
2018-07-12T21:57:13.827Z,26.3
2018-07-12T21:58:03.866Z,26.3
2018-07-12T21:58:54.216Z,26.3
2018-07-12T21:59:44.010Z,26.3
2018-07-12T22:00:34.328Z,26.3
2018-07-12T22:01:24.433Z,26.3
2018-07-12T22:02:14.178Z,26.3
2018-07-12T22:03:04.001Z,26.2
2018-07-12T22:03:54.587Z,26.3
2018-07-12T22:04:44.410Z,26.2
2018-07-12T22:05:34.176Z,26.2
2018-07-12T22:06:24.531Z,26.2
2018-07-12T22:07:14.867Z,26.2
2018-07-12T22:08:04.459Z,26.2
2018-07-12T22:08:54.495Z,26.2
2018-07-12T22:09:44.754Z,26.2
2018-07-12T22:10:34.841Z,26.2
2018-07-12T22:11:24.889Z,26.2
2018-07-12T22:12:15.257Z,26.2
2018-07-12T22:13:05.307Z,26.1
2018-07-12T22:13:55.640Z,26.1
2018-07-12T22:14:45.433Z,26.1
2018-07-12T22:15:35.519Z,26.1
2018-07-12T22:16:25.558Z,26.1
2018-07-12T22:17:15.326Z,26.1
2018-07-12T22:18:05.400Z,26.1
2018-07-12T22:18:55.452Z,26.1
2018-07-12T22:19:45.809Z,26.1
2018-07-12T22:20:35.868Z,26.1
2018-07-12T22:21:25.647Z,26.1
2018-07-12T22:22:15.964Z,26.1
2018-07-12T22:23:05.748Z,26.1
2018-07-12T22:23:56.126Z,26.1
2018-07-12T22:24:45.652Z,26.1
2018-07-12T22:25:36.229Z,26.1
2018-07-12T22:26:25.751Z,26.1
2018-07-12T22:27:16.112Z,26.1
2018-07-12T22:28:06.235Z,26.1
2018-07-12T22:28:56.482Z,26.1
2018-07-12T22:29:46.544Z,26.1
2018-07-12T22:30:36.743Z,26.1
2018-07-12T22:31:26.677Z,26.1
2018-07-12T22:32:16.726Z,26.1
2018-07-12T22:33:06.839Z,26
2018-07-12T22:33:56.881Z,26
2018-07-12T22:34:46.962Z,26
2018-07-12T22:35:37.017Z,26
2018-07-12T22:36:27.109Z,26
2018-07-12T22:37:16.614Z,26
2018-07-12T22:38:06.910Z,26
2018-07-12T22:38:57.268Z,26
2018-07-12T22:39:47.336Z,25.9
2018-07-12T22:40:37.395Z,26
2018-07-12T22:41:26.893Z,26
2018-07-12T22:42:17.523Z,25.9
2018-07-12T22:43:07.331Z,26
2018-07-12T22:43:57.386Z,26
2018-07-12T22:44:47.218Z,25.9
2018-07-12T22:45:37.219Z,25.9
2018-07-12T22:46:27.853Z,25.9
2018-07-12T22:47:17.632Z,25.9
2018-07-12T22:48:08.163Z,25.9
2018-07-12T22:48:58.365Z,25.9
2018-07-12T22:49:47.612Z,25.9
2018-07-12T22:50:37.710Z,25.9
2018-07-12T22:51:27.483Z,25.9
2018-07-12T22:52:18.303Z,25.9
2018-07-12T22:53:07.826Z,25.9
2018-07-12T22:53:58.430Z,25.9
2018-07-12T22:54:47.751Z,25.9
2018-07-12T22:55:38.068Z,25.9
2018-07-12T22:56:28.118Z,25.9
2018-07-12T22:57:17.922Z,25.9
2018-07-12T22:58:08.745Z,25.9
2018-07-12T22:58:58.516Z,25.9
2018-07-12T22:59:48.874Z,25.9
2018-07-12T23:00:38.379Z,25.9
2018-07-12T23:01:28.706Z,25.9
2018-07-12T23:02:18.797Z,25.9
2018-07-12T23:03:09.133Z,25.9
2018-07-12T23:03:59.175Z,25.9
2018-07-12T23:04:48.971Z,25.8
2018-07-12T23:05:39.031Z,25.8
2018-07-12T23:06:28.621Z,25.8
2018-07-12T23:07:19.445Z,25.8
2018-07-12T23:08:08.945Z,25.8
2018-07-12T23:08:59.025Z,25.8
2018-07-12T23:09:49.089Z,25.8
2018-07-12T23:10:39.142Z,25.8
2018-07-12T23:11:29.545Z,25.8
2018-07-12T23:12:19.550Z,25.8
2018-07-12T23:13:09.878Z,25.8
2018-07-12T23:13:59.674Z,25.8
2018-07-12T23:14:50.039Z,25.8
2018-07-12T23:15:39.812Z,25.8
2018-07-12T23:16:30.168Z,25.8
2018-07-12T23:17:20.212Z,25.8
2018-07-12T23:18:10.315Z,25.8
2018-07-12T23:18:59.772Z,25.8
2018-07-12T23:19:50.132Z,25.8
2018-07-12T23:20:40.489Z,25.8
2018-07-12T23:21:30.544Z,25.8
2018-07-12T23:22:20.050Z,25.8
2018-07-12T23:23:09.825Z,25.8
2018-07-12T23:24:00.453Z,25.8
2018-07-12T23:24:51.505Z,25.8
2018-07-12T23:25:41.039Z,25.8
2018-07-12T23:26:30.656Z,25.8
2018-07-12T23:27:20.958Z,25.8
2018-07-12T23:28:11.069Z,25.7
2018-07-12T23:29:01.101Z,25.7
2018-07-12T23:29:51.184Z,25.8
2018-07-12T23:30:40.946Z,25.8
2018-07-12T23:31:31.027Z,25.7
2018-07-12T23:32:21.340Z,25.7
2018-07-12T23:33:11.412Z,25.7
2018-07-12T23:34:01.537Z,25.7
2018-07-12T23:34:51.255Z,25.8
2018-07-12T23:35:41.581Z,25.7
2018-07-12T23:36:31.669Z,25.7
2018-07-12T23:37:21.162Z,25.7
2018-07-12T23:38:11.521Z,25.7
2018-07-12T23:39:01.885Z,25.7
2018-07-12T23:39:51.351Z,25.7
2018-07-12T23:40:41.147Z,25.7
2018-07-12T23:41:31.783Z,25.7
2018-07-12T23:42:21.573Z,25.7
2018-07-12T23:43:12.187Z,25.7
2018-07-12T23:44:01.952Z,25.7
2018-07-12T23:44:52.053Z,25.7
2018-07-12T23:45:42.095Z,25.7
2018-07-12T23:46:31.853Z,25.7
2018-07-12T23:47:21.933Z,25.7
2018-07-12T23:48:12.033Z,25.7
2018-07-12T23:49:02.366Z,25.7
2018-07-12T23:49:52.404Z,25.6
2018-07-12T23:50:41.932Z,25.6
2018-07-12T23:51:32.847Z,25.6
2018-07-12T23:52:22.641Z,25.6
2018-07-12T23:53:12.688Z,25.6
2018-07-12T23:54:02.748Z,25.6
2018-07-12T23:54:53.060Z,25.6
2018-07-12T23:55:42.884Z,25.6
2018-07-12T23:56:32.922Z,25.6
2018-07-12T23:57:22.992Z,25.6
2018-07-12T23:58:12.502Z,25.6
2018-07-12T23:59:02.832Z,25.6
2018-07-12T23:59:53.242Z,25.6
